sensor_id;sensor_type;location;lat;lon;timestamp;P1;durP1;ratioP1;P2;durP2;ratioP2
43319;SDS011;28914;48.722;9.332;2023-12-22T00:01:25;2.47;;;0.97;;
43319;SDS011;28914;48.722;9.332;2023-12-22T00:06:44;0.90;;;0.67;;
43319;SDS011;28914;48.722;9.332;2023-12-22T00:12:03;3.03;;;0.80;;
43319;SDS011;28914;48.722;9.332;2023-12-22T00:17:23;2.37;;;0.80;;
43319;SDS011;28914;48.722;9.332;2023-12-22T00:22:42;1.43;;;0.90;;
43319;SDS011;28914;48.722;9.332;2023-12-22T00:28:01;1.13;;;0.80;;
43319;SDS011;28914;48.722;9.332;2023-12-22T00:33:20;5.00;;;1.50;;
43319;SDS011;28914;48.722;9.332;2023-12-22T00:38:39;2.23;;;1.17;;
43319;SDS011;28914;48.722;9.332;2023-12-22T00:43:59;3.23;;;1.43;;
43319;SDS011;28914;48.722;9.332;2023-12-22T00:49:18;2.80;;;1.67;;
43319;SDS011;28914;48.722;9.332;2023-12-22T00:54:37;3.33;;;1.30;;
43319;SDS011;28914;48.722;9.332;2023-12-22T00:59:56;2.13;;;1.10;;
43319;SDS011;28914;48.722;9.332;2023-12-22T01:05:15;3.20;;;1.13;;
43319;SDS011;28914;48.722;9.332;2023-12-22T01:10:35;3.00;;;1.00;;
43319;SDS011;28914;48.722;9.332;2023-12-22T01:15:54;2.63;;;1.00;;
43319;SDS011;28914;48.722;9.332;2023-12-22T01:21:13;1.77;;;0.77;;
43319;SDS011;28914;48.722;9.332;2023-12-22T01:26:32;3.80;;;0.87;;
43319;SDS011;28914;48.722;9.332;2023-12-22T01:31:51;1.40;;;0.80;;
43319;SDS011;28914;48.722;9.332;2023-12-22T01:37:11;2.43;;;1.00;;
43319;SDS011;28914;48.722;9.332;2023-12-22T01:42:30;2.47;;;1.47;;
43319;SDS011;28914;48.722;9.332;2023-12-22T01:47:49;3.03;;;1.00;;
43319;SDS011;28914;48.722;9.332;2023-12-22T01:53:08;1.93;;;1.00;;
43319;SDS011;28914;48.722;9.332;2023-12-22T01:58:27;3.23;;;0.90;;
43319;SDS011;28914;48.722;9.332;2023-12-22T02:03:49;2.37;;;0.80;;
43319;SDS011;28914;48.722;9.332;2023-12-22T02:09:13;1.97;;;1.23;;
43319;SDS011;28914;48.722;9.332;2023-12-22T02:14:32;1.97;;;0.83;;
43319;SDS011;28914;48.722;9.332;2023-12-22T02:19:51;6.07;;;1.93;;
43319;SDS011;28914;48.722;9.332;2023-12-22T02:25:11;3.00;;;0.70;;
43319;SDS011;28914;48.722;9.332;2023-12-22T02:36:13;3.10;;;0.80;;
43319;SDS011;28914;48.722;9.332;2023-12-22T02:41:35;4.17;;;1.10;;
43319;SDS011;28914;48.722;9.332;2023-12-22T02:46:54;2.80;;;1.10;;
43319;SDS011;28914;48.722;9.332;2023-12-22T02:52:14;2.10;;;1.00;;
43319;SDS011;28914;48.722;9.332;2023-12-22T02:57:33;1.67;;;0.80;;
43319;SDS011;28914;48.722;9.332;2023-12-22T03:02:53;2.77;;;0.80;;
43319;SDS011;28914;48.722;9.332;2023-12-22T03:08:12;2.60;;;1.37;;
43319;SDS011;28914;48.722;9.332;2023-12-22T03:13:31;2.13;;;0.83;;
43319;SDS011;28914;48.722;9.332;2023-12-22T03:18:50;1.83;;;0.90;;
43319;SDS011;28914;48.722;9.332;2023-12-22T03:24:09;1.70;;;0.73;;
43319;SDS011;28914;48.722;9.332;2023-12-22T03:29:28;2.17;;;1.00;;
43319;SDS011;28914;48.722;9.332;2023-12-22T03:34:48;3.20;;;0.80;;
43319;SDS011;28914;48.722;9.332;2023-12-22T03:40:07;2.73;;;0.93;;
43319;SDS011;28914;48.722;9.332;2023-12-22T03:45:28;3.90;;;1.10;;
43319;SDS011;28914;48.722;9.332;2023-12-22T03:50:47;4.17;;;1.10;;
43319;SDS011;28914;48.722;9.332;2023-12-22T03:56:07;3.60;;;1.10;;
43319;SDS011;28914;48.722;9.332;2023-12-22T04:01:27;1.70;;;0.83;;
43319;SDS011;28914;48.722;9.332;2023-12-22T04:06:46;3.53;;;1.27;;
43319;SDS011;28914;48.722;9.332;2023-12-22T04:12:06;3.47;;;1.20;;
43319;SDS011;28914;48.722;9.332;2023-12-22T04:17:25;1.67;;;1.10;;
43319;SDS011;28914;48.722;9.332;2023-12-22T04:22:44;3.23;;;1.23;;
43319;SDS011;28914;48.722;9.332;2023-12-22T04:28:03;2.50;;;1.00;;
43319;SDS011;28914;48.722;9.332;2023-12-22T04:33:23;3.00;;;1.07;;
43319;SDS011;28914;48.722;9.332;2023-12-22T04:38:42;2.43;;;1.43;;
43319;SDS011;28914;48.722;9.332;2023-12-22T04:44:01;4.47;;;1.17;;
43319;SDS011;28914;48.722;9.332;2023-12-22T04:49:21;2.70;;;1.23;;
43319;SDS011;28914;48.722;9.332;2023-12-22T04:54:41;3.20;;;0.97;;
43319;SDS011;28914;48.722;9.332;2023-12-22T05:00:00;2.80;;;0.80;;
43319;SDS011;28914;48.722;9.332;2023-12-22T05:05:19;3.50;;;1.53;;
43319;SDS011;28914;48.722;9.332;2023-12-22T05:10:38;3.10;;;1.20;;
43319;SDS011;28914;48.722;9.332;2023-12-22T05:15:57;2.10;;;0.83;;
43319;SDS011;28914;48.722;9.332;2023-12-22T05:21:16;2.50;;;1.17;;
43319;SDS011;28914;48.722;9.332;2023-12-22T05:26:36;4.00;;;1.10;;
43319;SDS011;28914;48.722;9.332;2023-12-22T05:31:55;2.40;;;1.20;;
43319;SDS011;28914;48.722;9.332;2023-12-22T05:37:14;4.10;;;1.43;;
43319;SDS011;28914;48.722;9.332;2023-12-22T05:42:34;2.70;;;1.20;;
43319;SDS011;28914;48.722;9.332;2023-12-22T05:47:53;4.77;;;1.50;;
43319;SDS011;28914;48.722;9.332;2023-12-22T05:53:12;5.83;;;1.80;;
43319;SDS011;28914;48.722;9.332;2023-12-22T05:58:31;8.13;;;1.50;;
43319;SDS011;28914;48.722;9.332;2023-12-22T06:03:51;6.03;;;3.13;;
43319;SDS011;28914;48.722;9.332;2023-12-22T06:09:10;3.70;;;1.40;;
43319;SDS011;28914;48.722;9.332;2023-12-22T06:14:31;4.77;;;1.73;;
43319;SDS011;28914;48.722;9.332;2023-12-22T06:19:50;3.10;;;1.60;;
43319;SDS011;28914;48.722;9.332;2023-12-22T06:25:09;8.03;;;2.07;;
43319;SDS011;28914;48.722;9.332;2023-12-22T06:30:29;5.03;;;2.10;;
43319;SDS011;28914;48.722;9.332;2023-12-22T06:35:48;5.30;;;1.97;;
43319;SDS011;28914;48.722;9.332;2023-12-22T06:41:21;6.17;;;1.80;;
43319;SDS011;28914;48.722;9.332;2023-12-22T06:46:41;5.87;;;2.10;;
43319;SDS011;28914;48.722;9.332;2023-12-22T06:52:00;3.50;;;1.90;;
43319;SDS011;28914;48.722;9.332;2023-12-22T06:57:20;3.83;;;1.90;;
43319;SDS011;28914;48.722;9.332;2023-12-22T07:02:39;3.80;;;1.80;;
43319;SDS011;28914;48.722;9.332;2023-12-22T07:07:58;7.03;;;3.10;;
43319;SDS011;28914;48.722;9.332;2023-12-22T07:13:18;4.03;;;1.50;;
43319;SDS011;28914;48.722;9.332;2023-12-22T07:18:37;2.90;;;1.30;;
43319;SDS011;28914;48.722;9.332;2023-12-22T07:23:57;3.83;;;1.30;;
43319;SDS011;28914;48.722;9.332;2023-12-22T07:29:19;5.23;;;1.90;;
43319;SDS011;28914;48.722;9.332;2023-12-22T07:34:38;3.57;;;1.60;;
43319;SDS011;28914;48.722;9.332;2023-12-22T07:39:58;3.93;;;2.23;;
43319;SDS011;28914;48.722;9.332;2023-12-22T07:45:17;3.43;;;1.70;;
43319;SDS011;28914;48.722;9.332;2023-12-22T07:50:37;6.53;;;2.10;;
43319;SDS011;28914;48.722;9.332;2023-12-22T07:55:56;3.93;;;1.53;;
43319;SDS011;28914;48.722;9.332;2023-12-22T08:01:17;3.73;;;1.53;;
43319;SDS011;28914;48.722;9.332;2023-12-22T08:06:37;2.90;;;2.20;;
43319;SDS011;28914;48.722;9.332;2023-12-22T08:11:56;4.00;;;1.60;;
43319;SDS011;28914;48.722;9.332;2023-12-22T08:17:15;4.80;;;1.40;;
43319;SDS011;28914;48.722;9.332;2023-12-22T08:22:34;2.50;;;1.40;;
43319;SDS011;28914;48.722;9.332;2023-12-22T08:27:53;3.53;;;2.20;;
43319;SDS011;28914;48.722;9.332;2023-12-22T08:33:13;3.93;;;1.47;;
43319;SDS011;28914;48.722;9.332;2023-12-22T08:38:32;6.97;;;2.00;;
43319;SDS011;28914;48.722;9.332;2023-12-22T08:43:51;6.00;;;1.87;;
43319;SDS011;28914;48.722;9.332;2023-12-22T08:49:10;5.40;;;2.23;;
43319;SDS011;28914;48.722;9.332;2023-12-22T08:54:30;8.13;;;2.50;;
43319;SDS011;28914;48.722;9.332;2023-12-22T08:59:49;5.07;;;2.30;;
43319;SDS011;28914;48.722;9.332;2023-12-22T09:05:08;8.47;;;2.73;;
43319;SDS011;28914;48.722;9.332;2023-12-22T09:10:27;6.83;;;2.60;;
43319;SDS011;28914;48.722;9.332;2023-12-22T09:15:47;4.20;;;1.90;;
43319;SDS011;28914;48.722;9.332;2023-12-22T09:21:07;3.60;;;2.03;;
43319;SDS011;28914;48.722;9.332;2023-12-22T09:26:26;7.67;;;2.37;;
43319;SDS011;28914;48.722;9.332;2023-12-22T09:31:46;5.40;;;2.27;;
43319;SDS011;28914;48.722;9.332;2023-12-22T09:37:06;3.13;;;1.80;;
43319;SDS011;28914;48.722;9.332;2023-12-22T09:42:25;6.53;;;1.77;;
43319;SDS011;28914;48.722;9.332;2023-12-22T09:47:44;6.67;;;2.83;;
43319;SDS011;28914;48.722;9.332;2023-12-22T09:53:04;4.90;;;2.70;;
43319;SDS011;28914;48.722;9.332;2023-12-22T09:58:24;3.77;;;1.50;;
43319;SDS011;28914;48.722;9.332;2023-12-22T10:03:44;4.00;;;2.40;;
43319;SDS011;28914;48.722;9.332;2023-12-22T10:09:04;7.40;;;3.60;;
43319;SDS011;28914;48.722;9.332;2023-12-22T10:14:25;8.03;;;2.80;;
43319;SDS011;28914;48.722;9.332;2023-12-22T10:19:45;5.60;;;3.10;;
43319;SDS011;28914;48.722;9.332;2023-12-22T10:25:05;8.80;;;3.33;;
43319;SDS011;28914;48.722;9.332;2023-12-22T10:30:25;8.40;;;2.50;;
43319;SDS011;28914;48.722;9.332;2023-12-22T10:35:46;4.17;;;2.20;;
43319;SDS011;28914;48.722;9.332;2023-12-22T10:41:07;4.90;;;1.90;;
43319;SDS011;28914;48.722;9.332;2023-12-22T10:46:26;9.10;;;2.43;;
43319;SDS011;28914;48.722;9.332;2023-12-22T10:51:49;6.00;;;2.20;;
43319;SDS011;28914;48.722;9.332;2023-12-22T10:57:09;7.37;;;2.53;;
43319;SDS011;28914;48.722;9.332;2023-12-22T11:02:29;7.23;;;2.00;;
43319;SDS011;28914;48.722;9.332;2023-12-22T11:07:50;3.57;;;1.67;;
43319;SDS011;28914;48.722;9.332;2023-12-22T11:13:13;3.03;;;1.60;;
43319;SDS011;28914;48.722;9.332;2023-12-22T11:18:34;4.37;;;1.57;;
43319;SDS011;28914;48.722;9.332;2023-12-22T11:23:55;3.20;;;1.70;;
43319;SDS011;28914;48.722;9.332;2023-12-22T11:29:18;4.67;;;3.10;;
43319;SDS011;28914;48.722;9.332;2023-12-22T11:34:39;2.47;;;1.57;;
43319;SDS011;28914;48.722;9.332;2023-12-22T11:40:00;4.23;;;1.67;;
43319;SDS011;28914;48.722;9.332;2023-12-22T11:45:19;4.70;;;1.60;;
43319;SDS011;28914;48.722;9.332;2023-12-22T11:50:41;2.30;;;1.40;;
43319;SDS011;28914;48.722;9.332;2023-12-22T11:56:02;2.23;;;1.40;;
43319;SDS011;28914;48.722;9.332;2023-12-22T12:01:28;2.73;;;1.80;;
43319;SDS011;28914;48.722;9.332;2023-12-22T12:06:50;2.03;;;1.10;;
43319;SDS011;28914;48.722;9.332;2023-12-22T12:12:09;2.80;;;1.50;;
43319;SDS011;28914;48.722;9.332;2023-12-22T12:17:30;1.80;;;1.27;;
43319;SDS011;28914;48.722;9.332;2023-12-22T12:22:49;5.03;;;1.60;;
43319;SDS011;28914;48.722;9.332;2023-12-22T12:28:08;2.47;;;1.17;;
43319;SDS011;28914;48.722;9.332;2023-12-22T12:33:28;2.60;;;1.57;;
43319;SDS011;28914;48.722;9.332;2023-12-22T12:39:01;2.30;;;1.40;;
43319;SDS011;28914;48.722;9.332;2023-12-22T12:44:26;1.87;;;1.00;;
43319;SDS011;28914;48.722;9.332;2023-12-22T12:49:45;1.80;;;1.10;;
43319;SDS011;28914;48.722;9.332;2023-12-22T12:55:05;1.70;;;1.00;;
43319;SDS011;28914;48.722;9.332;2023-12-22T13:00:25;1.30;;;0.87;;
43319;SDS011;28914;48.722;9.332;2023-12-22T13:05:48;1.83;;;1.13;;
43319;SDS011;28914;48.722;9.332;2023-12-22T13:11:08;1.10;;;0.80;;
43319;SDS011;28914;48.722;9.332;2023-12-22T13:16:27;2.00;;;1.13;;
43319;SDS011;28914;48.722;9.332;2023-12-22T13:21:50;1.53;;;0.93;;
43319;SDS011;28914;48.722;9.332;2023-12-22T13:27:09;1.30;;;1.07;;
43319;SDS011;28914;48.722;9.332;2023-12-22T13:32:29;1.00;;;0.70;;
43319;SDS011;28914;48.722;9.332;2023-12-22T13:37:48;1.40;;;0.90;;
43319;SDS011;28914;48.722;9.332;2023-12-22T13:43:07;2.70;;;0.70;;
43319;SDS011;28914;48.722;9.332;2023-12-22T13:48:27;1.33;;;0.60;;
43319;SDS011;28914;48.722;9.332;2023-12-22T13:53:47;0.90;;;0.60;;
43319;SDS011;28914;48.722;9.332;2023-12-22T13:59:07;1.00;;;0.50;;
43319;SDS011;28914;48.722;9.332;2023-12-22T14:04:26;0.90;;;0.57;;
43319;SDS011;28914;48.722;9.332;2023-12-22T14:09:46;0.90;;;0.60;;
43319;SDS011;28914;48.722;9.332;2023-12-22T14:15:08;1.13;;;0.60;;
43319;SDS011;28914;48.722;9.332;2023-12-22T14:20:28;1.00;;;0.60;;
43319;SDS011;28914;48.722;9.332;2023-12-22T14:25:47;1.10;;;0.80;;
43319;SDS011;28914;48.722;9.332;2023-12-22T14:31:07;1.00;;;0.60;;
43319;SDS011;28914;48.722;9.332;2023-12-22T14:36:26;1.40;;;1.20;;
43319;SDS011;28914;48.722;9.332;2023-12-22T14:41:45;0.93;;;0.83;;
43319;SDS011;28914;48.722;9.332;2023-12-22T14:47:05;0.90;;;0.50;;
43319;SDS011;28914;48.722;9.332;2023-12-22T14:52:25;1.00;;;0.60;;
43319;SDS011;28914;48.722;9.332;2023-12-22T14:57:44;1.53;;;0.50;;
43319;SDS011;28914;48.722;9.332;2023-12-22T15:03:03;1.27;;;0.70;;
43319;SDS011;28914;48.722;9.332;2023-12-22T15:08:22;1.10;;;0.77;;
43319;SDS011;28914;48.722;9.332;2023-12-22T15:13:42;0.80;;;0.60;;
43319;SDS011;28914;48.722;9.332;2023-12-22T15:19:01;1.63;;;0.57;;
43319;SDS011;28914;48.722;9.332;2023-12-22T15:24:20;1.53;;;0.80;;
43319;SDS011;28914;48.722;9.332;2023-12-22T15:29:40;1.07;;;0.73;;
43319;SDS011;28914;48.722;9.332;2023-12-22T15:34:59;1.10;;;0.90;;
43319;SDS011;28914;48.722;9.332;2023-12-22T15:40:18;0.93;;;0.50;;
43319;SDS011;28914;48.722;9.332;2023-12-22T15:45:37;1.40;;;0.87;;
43319;SDS011;28914;48.722;9.332;2023-12-22T15:50:56;1.00;;;0.70;;
43319;SDS011;28914;48.722;9.332;2023-12-22T15:56:16;1.10;;;0.60;;
43319;SDS011;28914;48.722;9.332;2023-12-22T16:01:41;0.90;;;0.70;;
43319;SDS011;28914;48.722;9.332;2023-12-22T16:07:00;1.10;;;0.80;;
43319;SDS011;28914;48.722;9.332;2023-12-22T16:12:20;1.87;;;0.80;;
43319;SDS011;28914;48.722;9.332;2023-12-22T16:17:39;1.00;;;0.70;;
43319;SDS011;28914;48.722;9.332;2023-12-22T16:22:58;1.60;;;1.10;;
43319;SDS011;28914;48.722;9.332;2023-12-22T16:28:18;1.03;;;0.63;;
43319;SDS011;28914;48.722;9.332;2023-12-22T16:33:37;0.80;;;0.50;;
43319;SDS011;28914;48.722;9.332;2023-12-22T16:38:56;1.00;;;0.50;;
43319;SDS011;28914;48.722;9.332;2023-12-22T16:44:16;0.80;;;0.50;;
43319;SDS011;28914;48.722;9.332;2023-12-22T16:49:37;0.90;;;0.50;;
43319;SDS011;28914;48.722;9.332;2023-12-22T16:54:56;0.90;;;0.60;;
43319;SDS011;28914;48.722;9.332;2023-12-22T17:00:15;1.40;;;0.93;;
43319;SDS011;28914;48.722;9.332;2023-12-22T17:05:37;1.40;;;0.60;;
43319;SDS011;28914;48.722;9.332;2023-12-22T17:10:59;1.60;;;1.23;;
43319;SDS011;28914;48.722;9.332;2023-12-22T17:16:18;1.30;;;0.90;;
43319;SDS011;28914;48.722;9.332;2023-12-22T17:21:37;1.83;;;1.23;;
43319;SDS011;28914;48.722;9.332;2023-12-22T17:27:00;3.90;;;3.30;;
43319;SDS011;28914;48.722;9.332;2023-12-22T17:32:19;2.00;;;1.80;;
43319;SDS011;28914;48.722;9.332;2023-12-22T17:37:39;1.20;;;1.00;;
43319;SDS011;28914;48.722;9.332;2023-12-22T17:42:58;1.40;;;0.90;;
43319;SDS011;28914;48.722;9.332;2023-12-22T17:48:17;0.90;;;0.60;;
43319;SDS011;28914;48.722;9.332;2023-12-22T17:53:37;0.90;;;0.60;;
43319;SDS011;28914;48.722;9.332;2023-12-22T17:58:56;1.10;;;0.70;;
43319;SDS011;28914;48.722;9.332;2023-12-22T18:04:15;2.00;;;0.73;;
43319;SDS011;28914;48.722;9.332;2023-12-22T18:09:37;1.00;;;0.70;;
43319;SDS011;28914;48.722;9.332;2023-12-22T18:14:57;0.90;;;0.63;;
43319;SDS011;28914;48.722;9.332;2023-12-22T18:20:17;2.20;;;0.83;;
43319;SDS011;28914;48.722;9.332;2023-12-22T18:25:36;0.90;;;0.60;;
43319;SDS011;28914;48.722;9.332;2023-12-22T18:30:57;0.97;;;0.50;;
43319;SDS011;28914;48.722;9.332;2023-12-22T18:36:16;0.90;;;0.50;;
43319;SDS011;28914;48.722;9.332;2023-12-22T18:41:35;1.00;;;0.60;;
43319;SDS011;28914;48.722;9.332;2023-12-22T18:46:54;1.20;;;0.80;;
43319;SDS011;28914;48.722;9.332;2023-12-22T18:52:13;1.00;;;0.70;;
43319;SDS011;28914;48.722;9.332;2023-12-22T18:57:32;1.40;;;0.80;;
43319;SDS011;28914;48.722;9.332;2023-12-22T19:02:51;1.67;;;0.70;;
43319;SDS011;28914;48.722;9.332;2023-12-22T19:08:11;4.43;;;0.70;;
43319;SDS011;28914;48.722;9.332;2023-12-22T19:13:30;1.23;;;0.80;;
43319;SDS011;28914;48.722;9.332;2023-12-22T19:18:50;1.10;;;0.60;;
43319;SDS011;28914;48.722;9.332;2023-12-22T19:24:09;1.30;;;0.73;;
43319;SDS011;28914;48.722;9.332;2023-12-22T19:29:29;1.87;;;0.70;;
43319;SDS011;28914;48.722;9.332;2023-12-22T19:34:48;1.27;;;0.80;;
43319;SDS011;28914;48.722;9.332;2023-12-22T19:40:07;1.53;;;0.93;;
43319;SDS011;28914;48.722;9.332;2023-12-22T19:45:28;1.20;;;0.60;;
43319;SDS011;28914;48.722;9.332;2023-12-22T19:50:47;1.50;;;1.10;;
43319;SDS011;28914;48.722;9.332;2023-12-22T19:56:07;1.47;;;0.70;;
43319;SDS011;28914;48.722;9.332;2023-12-22T20:01:26;2.07;;;1.23;;
43319;SDS011;28914;48.722;9.332;2023-12-22T20:06:46;2.03;;;1.10;;
43319;SDS011;28914;48.722;9.332;2023-12-22T20:12:05;1.50;;;1.10;;
43319;SDS011;28914;48.722;9.332;2023-12-22T20:17:24;1.17;;;0.60;;
43319;SDS011;28914;48.722;9.332;2023-12-22T20:22:44;0.87;;;0.50;;
43319;SDS011;28914;48.722;9.332;2023-12-22T20:28:03;0.80;;;0.50;;
43319;SDS011;28914;48.722;9.332;2023-12-22T20:33:22;2.10;;;0.63;;
43319;SDS011;28914;48.722;9.332;2023-12-22T20:38:41;1.30;;;0.60;;
43319;SDS011;28914;48.722;9.332;2023-12-22T20:44:00;3.83;;;1.27;;
43319;SDS011;28914;48.722;9.332;2023-12-22T20:49:20;1.23;;;0.73;;
43319;SDS011;28914;48.722;9.332;2023-12-22T20:54:40;3.10;;;0.70;;
43319;SDS011;28914;48.722;9.332;2023-12-22T20:59:59;1.10;;;0.60;;
43319;SDS011;28914;48.722;9.332;2023-12-22T21:05:18;1.60;;;1.00;;
43319;SDS011;28914;48.722;9.332;2023-12-22T21:10:37;1.23;;;0.70;;
43319;SDS011;28914;48.722;9.332;2023-12-22T21:15:56;1.33;;;0.77;;
43319;SDS011;28914;48.722;9.332;2023-12-22T21:21:16;0.97;;;0.63;;
43319;SDS011;28914;48.722;9.332;2023-12-22T21:26:35;3.63;;;0.90;;
43319;SDS011;28914;48.722;9.332;2023-12-22T21:31:54;3.40;;;1.00;;
43319;SDS011;28914;48.722;9.332;2023-12-22T21:37:13;1.10;;;0.77;;
43319;SDS011;28914;48.722;9.332;2023-12-22T21:42:33;1.90;;;0.83;;
43319;SDS011;28914;48.722;9.332;2023-12-22T21:47:52;1.60;;;0.80;;
43319;SDS011;28914;48.722;9.332;2023-12-22T21:53:12;1.50;;;0.70;;
43319;SDS011;28914;48.722;9.332;2023-12-22T21:58:32;1.67;;;0.67;;
43319;SDS011;28914;48.722;9.332;2023-12-22T22:03:52;2.53;;;0.60;;
43319;SDS011;28914;48.722;9.332;2023-12-22T22:09:11;1.63;;;0.60;;
43319;SDS011;28914;48.722;9.332;2023-12-22T22:14:30;1.27;;;0.70;;
43319;SDS011;28914;48.722;9.332;2023-12-22T22:19:50;1.83;;;1.00;;
43319;SDS011;28914;48.722;9.332;2023-12-22T22:25:09;2.87;;;0.83;;
43319;SDS011;28914;48.722;9.332;2023-12-22T22:30:28;2.23;;;0.60;;
43319;SDS011;28914;48.722;9.332;2023-12-22T22:35:47;1.63;;;0.70;;
43319;SDS011;28914;48.722;9.332;2023-12-22T22:41:07;1.83;;;0.90;;
43319;SDS011;28914;48.722;9.332;2023-12-22T22:46:28;1.50;;;0.80;;
43319;SDS011;28914;48.722;9.332;2023-12-22T22:51:47;2.17;;;0.80;;
43319;SDS011;28914;48.722;9.332;2023-12-22T22:57:06;1.33;;;0.60;;
43319;SDS011;28914;48.722;9.332;2023-12-22T23:02:25;1.00;;;0.70;;
43319;SDS011;28914;48.722;9.332;2023-12-22T23:07:44;1.30;;;0.60;;
43319;SDS011;28914;48.722;9.332;2023-12-22T23:13:04;1.43;;;0.60;;
43319;SDS011;28914;48.722;9.332;2023-12-22T23:18:23;1.27;;;0.60;;
43319;SDS011;28914;48.722;9.332;2023-12-22T23:23:42;1.97;;;0.60;;
43319;SDS011;28914;48.722;9.332;2023-12-22T23:29:01;1.50;;;0.70;;
43319;SDS011;28914;48.722;9.332;2023-12-22T23:34:21;2.40;;;0.70;;
43319;SDS011;28914;48.722;9.332;2023-12-22T23:39:40;1.67;;;0.63;;
43319;SDS011;28914;48.722;9.332;2023-12-22T23:44:59;1.10;;;0.60;;
43319;SDS011;28914;48.722;9.332;2023-12-22T23:50:19;4.17;;;1.23;;
43319;SDS011;28914;48.722;9.332;2023-12-22T23:55:38;2.27;;;1.00;;
